createdAt,value
2024-04-18T00:01:31.439Z,96542.81
2024-04-18T00:04:17.823Z,96546.66
2024-04-18T00:07:06.093Z,96540.59
2024-04-18T00:09:51.965Z,96540.00
2024-04-18T00:12:50.783Z,96542.03
2024-04-18T00:15:46.104Z,96541.41
2024-04-18T00:18:52.238Z,96535.56
2024-04-18T00:21:44.687Z,96541.84
2024-04-18T00:24:46.175Z,96543.84
2024-04-18T00:27:41.492Z,96540.03
2024-04-18T00:30:28.287Z,96545.47
2024-04-18T00:33:14.671Z,96543.06
2024-04-18T00:36:01.060Z,96542.66
2024-04-18T00:39:06.309Z,96543.88
2024-04-18T00:41:52.341Z,96543.28
2024-04-18T00:44:48.531Z,96547.94
2024-04-18T00:47:35.702Z,96542.47
2024-04-18T00:50:28.550Z,96543.91
2024-04-18T00:53:34.834Z,96538.03
2024-04-18T00:56:42.214Z,96545.31
2024-04-18T00:59:48.976Z,96546.53
2024-04-18T01:02:35.508Z,96544.09
2024-04-18T01:05:41.307Z,96550.34
2024-04-18T01:08:27.341Z,96550.56
2024-04-18T01:11:16.463Z,96548.94
2024-04-18T01:14:12.874Z,96543.91
2024-04-18T01:17:18.138Z,96548.16
2024-04-18T01:20:04.646Z,96536.03
2024-04-18T01:22:50.700Z,96544.72
2024-04-18T01:25:57.312Z,96548.13
2024-04-18T01:28:43.844Z,96555.00
2024-04-18T01:31:49.833Z,96558.59
2024-04-18T01:34:36.341Z,96546.72
2024-04-18T01:37:34.970Z,96548.34
2024-04-18T01:40:34.512Z,96550.38
2024-04-18T01:43:40.178Z,96546.53
2024-04-18T01:47:04.666Z,96554.38
2024-04-18T01:49:50.858Z,96553.38
2024-04-18T01:52:39.372Z,96557.84
2024-04-18T01:55:25.457Z,96556.81
2024-04-18T01:58:27.834Z,96552.38
2024-04-18T02:01:13.995Z,96553.38
2024-04-18T02:04:00.235Z,96545.72
2024-04-18T02:06:46.272Z,96551.78
2024-04-18T02:09:44.729Z,96558.84
2024-04-18T02:12:46.216Z,96561.03
2024-04-18T02:15:33.102Z,96557.41
2024-04-18T02:18:33.220Z,96558.22
2024-04-18T02:21:32.199Z,96566.09
2024-04-18T02:24:18.681Z,96557.41
2024-04-18T02:27:05.072Z,96561.84
2024-04-18T02:29:51.327Z,96573.13
2024-04-18T02:32:55.974Z,96569.72
2024-04-18T02:35:42.181Z,96568.09
2024-04-18T02:38:48.467Z,96570.50
2024-04-18T02:41:34.556Z,96571.34
2024-04-18T02:44:40.592Z,96573.13
2024-04-18T02:47:27.212Z,96577.38
2024-04-18T02:50:36.059Z,96578.16
2024-04-18T02:53:23.482Z,96571.34
2024-04-18T02:56:28.147Z,96575.53
2024-04-18T02:59:27.923Z,96572.75
2024-04-18T03:02:14.554Z,96570.91
2024-04-18T03:05:00.972Z,96574.94
2024-04-18T03:07:46.835Z,96574.75
2024-04-18T03:10:33.008Z,96577.19
2024-04-18T03:13:19.149Z,96577.97
2024-04-18T03:16:11.287Z,96576.34
2024-04-18T03:19:02.164Z,96573.34
2024-04-18T03:22:08.289Z,96581.78
2024-04-18T03:25:14.510Z,96580.78
2024-04-18T03:28:20.832Z,96591.09
2024-04-18T03:31:07.193Z,96580.59
2024-04-18T03:33:53.703Z,96591.09
2024-04-18T03:36:45.074Z,96588.84
2024-04-18T03:39:48.996Z,96591.66
2024-04-18T03:42:35.086Z,96596.91
2024-04-18T03:45:21.127Z,96590.66
2024-04-18T03:48:07.572Z,96593.69
2024-04-18T03:51:11.987Z,96599.53
2024-04-18T03:54:17.159Z,96601.13
2024-04-18T03:57:12.578Z,96595.47
2024-04-18T04:00:16.218Z,96605.53
2024-04-18T04:03:02.367Z,96611.81
2024-04-18T04:05:48.553Z,96617.44
2024-04-18T04:08:34.895Z,96612.97
2024-04-18T04:11:30.944Z,96618.22
2024-04-18T04:14:17.134Z,96619.84
2024-04-18T04:17:13.484Z,96616.22
2024-04-18T04:19:59.693Z,96619.47
2024-04-18T04:22:46.109Z,96627.91
2024-04-18T04:25:41.510Z,96633.13
2024-04-18T04:28:28.120Z,96639.00
2024-04-18T04:31:14.400Z,96643.22
2024-04-18T04:34:00.522Z,96646.84
2024-04-18T04:36:46.664Z,96645.22
2024-04-18T04:39:33.202Z,96643.63
2024-04-18T04:42:38.131Z,96650.69
2024-04-18T04:45:24.604Z,96648.25
2024-04-18T04:48:26.419Z,96657.13
2024-04-18T04:51:31.407Z,96660.38
2024-04-18T04:54:22.099Z,96660.16
2024-04-18T04:57:08.796Z,96663.19
2024-04-18T04:59:54.739Z,96664.19
2024-04-18T05:02:43.272Z,96662.19
2024-04-18T05:05:38.149Z,96669.63
2024-04-18T05:08:24.403Z,96676.28
2024-04-18T05:11:10.559Z,96678.72
2024-04-18T05:13:57.214Z,96676.69
2024-04-18T05:17:06.757Z,96679.72
2024-04-18T05:19:53.086Z,96690.00
2024-04-18T05:22:54.852Z,96693.25
2024-04-18T05:25:41.181Z,96694.66
2024-04-18T05:29:02.597Z,96697.69
2024-04-18T05:31:48.935Z,96703.13
2024-04-18T05:34:36.029Z,96701.94
2024-04-18T05:37:23.240Z,96711.78
2024-04-18T05:40:10.168Z,96710.22
2024-04-18T05:42:56.333Z,96703.75
2024-04-18T05:46:02.835Z,96712.22
2024-04-18T05:48:49.297Z,96716.25
2024-04-18T05:51:35.259Z,96717.69
2024-04-18T05:54:40.311Z,96715.44
2024-04-18T05:57:26.529Z,96721.50
2024-04-18T06:00:13.481Z,96722.34
2024-04-18T06:02:59.677Z,96723.16
2024-04-18T06:05:46.127Z,96720.72
2024-04-18T06:08:32.230Z,96721.97
2024-04-18T06:11:18.225Z,96725.41
2024-04-18T06:14:06.044Z,96723.59
2024-04-18T06:16:53.523Z,96728.44
2024-04-18T06:19:59.442Z,96731.66
2024-04-18T06:22:50.102Z,96736.91
2024-04-18T06:25:45.131Z,96736.50
2024-04-18T06:28:31.289Z,96739.53
2024-04-18T06:31:18.236Z,96749.41
2024-04-18T06:34:04.579Z,96743.16
2024-04-18T06:36:51.794Z,96753.44
2024-04-18T06:39:38.449Z,96748.81
2024-04-18T06:42:25.118Z,96752.81
2024-04-18T06:45:11.276Z,96755.66
2024-04-18T06:47:57.713Z,96760.72
2024-04-18T06:50:44.191Z,96752.03
2024-04-18T06:53:30.623Z,96762.91
2024-04-18T06:56:17.653Z,96774.22
2024-04-18T06:59:04.961Z,96767.75
2024-04-18T07:02:00.333Z,96771.94
2024-04-18T07:04:47.084Z,96776.78
2024-04-18T07:07:33.370Z,96776.16
2024-04-18T07:10:19.535Z,96777.56
2024-04-18T07:13:13.120Z,96786.03
2024-04-18T07:16:13.767Z,96792.69
2024-04-18T07:19:15.231Z,96799.34
2024-04-18T07:22:12.759Z,96795.72
2024-04-18T07:25:14.442Z,96801.34
2024-04-18T07:28:00.787Z,96802.94
2024-04-18T07:30:47.685Z,96810.81
2024-04-18T07:33:35.149Z,96807.97
2024-04-18T07:36:34.853Z,96807.13
2024-04-18T07:39:26.837Z,96814.75
2024-04-18T07:42:13.846Z,96819.00
2024-04-18T07:44:59.718Z,96817.94
2024-04-18T07:47:46.912Z,96820.56
2024-04-18T07:50:32.751Z,96819.31
2024-04-18T07:53:18.926Z,96824.91
2024-04-18T07:56:09.305Z,96826.84
2024-04-18T07:58:56.443Z,96827.69
2024-04-18T08:01:46.141Z,96829.94
2024-04-18T08:04:50.949Z,96829.09
2024-04-18T08:07:40.884Z,96838.88
2024-04-18T08:10:36.300Z,96837.75
2024-04-18T08:13:35.550Z,96840.94
2024-04-18T08:16:24.628Z,96849.81
2024-04-18T08:19:10.771Z,96848.34
2024-04-18T08:21:56.780Z,96843.19
2024-04-18T08:24:42.909Z,96838.63
2024-04-18T08:27:29.005Z,96833.59
2024-04-18T08:30:15.370Z,96831.97
2024-04-18T08:33:01.594Z,96836.75
2024-04-18T08:35:47.922Z,96830.31
2024-04-18T08:38:34.172Z,96835.34
2024-04-18T08:41:21.536Z,96838.47
2024-04-18T08:44:07.756Z,96828.88
2024-04-18T08:46:54.272Z,96838.03
2024-04-18T08:49:41.200Z,96837.06
2024-04-18T08:52:35.049Z,96849.88
2024-04-18T08:55:24.270Z,96843.53
2024-04-18T08:58:12.333Z,96852.34
2024-04-18T09:00:58.643Z,96855.06
2024-04-18T09:03:45.194Z,96854.28
2024-04-18T09:06:32.125Z,96856.47
2024-04-18T09:09:20.152Z,96860.97
2024-04-18T09:12:07.780Z,96855.34
2024-04-18T09:14:54.185Z,96864.91
2024-04-18T09:17:40.553Z,96869.03
2024-04-18T09:20:26.614Z,96865.47
2024-04-18T09:23:12.893Z,96874.22
2024-04-18T09:25:59.241Z,96875.97
2024-04-18T09:28:46.236Z,96881.25
2024-04-18T09:31:38.499Z,96889.13
2024-04-18T09:34:32.495Z,96886.06
2024-04-18T09:37:18.855Z,96885.47
2024-04-18T09:40:11.902Z,96894.91
2024-04-18T09:43:19.126Z,96892.94
2024-04-18T09:46:07.494Z,96886.56
2024-04-18T09:48:56.979Z,96886.34
2024-04-18T09:54:23.336Z,96885.59
2024-04-18T09:57:11.531Z,96877.97
2024-04-18T09:59:59.068Z,96882.50
2024-04-18T10:02:48.989Z,96881.09
2024-04-18T10:05:37.666Z,96899.50
2024-04-18T10:08:28.965Z,96890.63
2024-04-18T10:11:22.664Z,96896.91
2024-04-18T10:14:12.129Z,96915.13
2024-04-18T10:16:58.722Z,96920.34
2024-04-18T10:19:46.714Z,96917.50
2024-04-18T10:22:45.461Z,96919.66
2024-04-18T10:25:45.169Z,96923.81
2024-04-18T10:28:35.225Z,96932.44
2024-04-18T10:31:22.344Z,96930.28
2024-04-18T10:34:08.825Z,96924.91
2024-04-18T10:36:57.714Z,96934.69
2024-04-18T10:39:45.646Z,96942.88
2024-04-18T10:42:37.141Z,96941.19
2024-04-18T10:45:23.787Z,96956.63
2024-04-18T10:48:10.074Z,96963.63
2024-04-18T10:50:56.241Z,96979.97
2024-04-18T10:53:42.674Z,96980.06
2024-04-18T10:56:30.161Z,96986.28
2024-04-18T10:59:16.586Z,96997.13
2024-04-18T11:02:10.649Z,96997.41
2024-04-18T11:04:57.145Z,97001.28
2024-04-18T11:08:03.712Z,97000.09
2024-04-18T11:10:52.948Z,96994.22
2024-04-18T11:13:39.314Z,97001.91
2024-04-18T11:16:26.827Z,96994.03
2024-04-18T11:19:13.822Z,96997.06
2024-04-18T11:22:03.503Z,96986.94
2024-04-18T11:24:49.893Z,96994.22
2024-04-18T11:27:40.213Z,96987.94
2024-04-18T11:30:27.327Z,96997.84
2024-04-18T11:33:13.795Z,96990.19
2024-04-18T11:36:00.054Z,96996.66
2024-04-18T11:38:49.092Z,96996.44
2024-04-18T11:41:35.689Z,97005.53
2024-04-18T11:44:21.876Z,97006.13
2024-04-18T11:47:08.166Z,97007.94
2024-04-18T11:49:54.268Z,97008.75
2024-04-18T11:52:40.735Z,97009.13
2024-04-18T11:55:27.306Z,97003.03
2024-04-18T11:58:13.451Z,97008.66
2024-04-18T12:00:59.698Z,97013.50
2024-04-18T12:03:58.586Z,97005.75
2024-04-18T12:06:51.550Z,97001.19
2024-04-18T12:09:52.410Z,96993.38
2024-04-18T12:12:38.807Z,96984.13
2024-04-18T12:15:40.203Z,96984.50
2024-04-18T12:18:26.290Z,96988.81
2024-04-18T12:21:12.791Z,96995.56
2024-04-18T12:23:58.922Z,97000.22
2024-04-18T12:26:54.152Z,96999.97
2024-04-18T12:29:40.470Z,96996.56
2024-04-18T12:32:27.601Z,96985.31
2024-04-18T12:35:14.036Z,96983.22
2024-04-18T12:38:00.228Z,96987.63
2024-04-18T12:40:46.824Z,96980.78
2024-04-18T12:43:33.569Z,96981.09
2024-04-18T12:46:23.683Z,96985.03
2024-04-18T12:49:10.912Z,96982.09
2024-04-18T12:51:57.496Z,96995.81
2024-04-18T12:54:44.180Z,96986.31
2024-04-18T12:57:42.339Z,96990.47
2024-04-18T13:00:48.764Z,96994.53
2024-04-18T13:03:56.753Z,96992.75
2024-04-18T13:07:01.820Z,96995.78
2024-04-18T13:09:47.817Z,97000.13
2024-04-18T13:12:34.701Z,97001.19
2024-04-18T13:15:40.917Z,96997.88
2024-04-18T13:18:27.536Z,96999.03
2024-04-18T13:21:16.727Z,96999.72
2024-04-18T13:24:02.753Z,96997.06
2024-04-18T13:27:07.852Z,97000.41
2024-04-18T13:30:12.531Z,97002.59
2024-04-18T13:32:58.989Z,96977.06
2024-04-18T13:35:45.081Z,96979.69
2024-04-18T13:38:32.075Z,96974.31
2024-04-18T13:41:19.957Z,96982.91
2024-04-18T13:44:06.021Z,96974.19
2024-04-18T13:47:00.164Z,96970.84
2024-04-18T13:49:58.975Z,96967.41
2024-04-18T13:52:45.131Z,96969.91
2024-04-18T13:55:31.598Z,96964.16
2024-04-18T13:58:18.767Z,96962.81
2024-04-18T14:01:17.335Z,96964.38
2024-04-18T14:04:21.191Z,96969.31
2024-04-18T14:07:07.432Z,96969.34
2024-04-18T14:09:56.148Z,96972.63
2024-04-18T14:13:01.993Z,96963.63
2024-04-18T14:16:24.917Z,96959.28
2024-04-18T14:19:11.973Z,96965.22
2024-04-18T14:21:58.144Z,96974.63
2024-04-18T14:24:44.364Z,96980.16
2024-04-18T14:27:50.798Z,96979.13
2024-04-18T14:30:55.314Z,96990.81
2024-04-18T14:33:41.867Z,96985.63
2024-04-18T14:36:27.957Z,96973.59
2024-04-18T14:39:14.215Z,96976.34
2024-04-18T14:42:00.310Z,96973.72
2024-04-18T14:44:48.128Z,96966.59
2024-04-18T14:47:34.803Z,96962.50
2024-04-18T14:50:21.501Z,96961.34
2024-04-18T14:53:25.737Z,96958.63
2024-04-18T14:56:28.863Z,96957.09
2024-04-18T14:59:21.036Z,96958.84
2024-04-18T15:02:07.329Z,96958.19
2024-04-18T15:05:15.437Z,96961.34
2024-04-18T15:08:18.704Z,96967.56
2024-04-18T15:11:10.065Z,96975.19
2024-04-18T15:14:16.616Z,96977.44
2024-04-18T15:17:03.420Z,96981.66
2024-04-18T15:19:49.751Z,96983.31
2024-04-18T15:22:54.419Z,96991.34
2024-04-18T15:25:43.511Z,96994.34
2024-04-18T15:28:31.777Z,96990.75
2024-04-18T15:31:27.753Z,96985.38
2024-04-18T15:34:17.011Z,96992.09
2024-04-18T15:37:15.312Z,96985.13
2024-04-18T15:40:17.938Z,96990.38
2024-04-18T15:43:22.066Z,96987.50
2024-04-18T15:46:08.293Z,96988.38
2024-04-18T15:48:54.350Z,96993.63
2024-04-18T15:51:40.845Z,97002.94
2024-04-18T15:54:27.069Z,97001.84
2024-04-18T15:57:13.236Z,97004.78
2024-04-18T16:00:19.427Z,97008.53
2024-04-18T16:03:06.218Z,97002.56
2024-04-18T16:06:11.152Z,97012.72
2024-04-18T16:09:03.392Z,97013.56
2024-04-18T16:11:58.967Z,97008.88
2024-04-18T16:14:48.377Z,97019.94
2024-04-18T16:17:34.671Z,97016.94
2024-04-18T16:20:30.026Z,97017.19
2024-04-18T16:23:17.358Z,97023.75
2024-04-18T16:26:03.915Z,97029.97
2024-04-18T16:28:54.169Z,97024.59
2024-04-18T16:31:40.272Z,97023.06
2024-04-18T16:34:35.416Z,97024.69
2024-04-18T16:37:23.671Z,97033.34
2024-04-18T16:40:31.574Z,97031.81
2024-04-18T16:43:17.655Z,97033.56
2024-04-18T16:46:19.282Z,97040.34
2024-04-18T16:49:05.526Z,97042.88
2024-04-18T16:51:52.671Z,97043.00
2024-04-18T16:54:49.624Z,97051.63
2024-04-18T16:57:56.247Z,97057.00
2024-04-18T17:00:42.499Z,97049.06
2024-04-18T17:03:32.208Z,97062.81
2024-04-18T17:06:18.540Z,97064.38
2024-04-18T17:09:05.104Z,97061.81
2024-04-18T17:11:51.464Z,97061.13
2024-04-18T17:14:56.802Z,97062.22
2024-04-18T17:17:42.816Z,97067.13
2024-04-18T17:20:43.964Z,97069.66
2024-04-18T17:23:30.566Z,97080.09
2024-04-18T17:26:16.816Z,97078.94
2024-04-18T17:29:03.523Z,97080.97
2024-04-18T17:31:59.269Z,97087.16
2024-04-18T17:34:45.557Z,97096.53
2024-04-18T17:37:52.909Z,97101.13
2024-04-18T17:40:41.773Z,97102.78
2024-04-18T17:43:27.715Z,97100.19
2024-04-18T17:46:16.175Z,97106.81
2024-04-18T17:49:05.530Z,97111.97
2024-04-18T17:51:52.384Z,97110.19
2024-04-18T17:54:38.876Z,97116.34
2024-04-18T17:57:25.240Z,97113.97
2024-04-18T18:00:31.205Z,97119.53
2024-04-18T18:03:17.552Z,97125.66
2024-04-18T18:06:03.666Z,97123.09
2024-04-18T18:08:49.624Z,97128.19
2024-04-18T18:11:44.820Z,97134.31
2024-04-18T18:14:30.959Z,97136.19
2024-04-18T18:17:17.168Z,97142.53
2024-04-18T18:20:04.232Z,97149.69
2024-04-18T18:23:06.840Z,97150.38
2024-04-18T18:25:52.547Z,97158.78
2024-04-18T18:28:38.815Z,97158.25
2024-04-18T18:31:25.538Z,97160.72
2024-04-18T18:34:26.924Z,97164.03
2024-04-18T18:37:13.885Z,97175.59
2024-04-18T18:40:01.390Z,97177.44
2024-04-18T18:42:50.473Z,97175.78
2024-04-18T18:45:41.011Z,97183.09
2024-04-18T18:48:35.870Z,97186.16
2024-04-18T18:54:48.582Z,97197.53
2024-04-18T18:57:37.559Z,97207.66
2024-04-18T19:00:28.883Z,97206.25
2024-04-18T19:03:28.144Z,97211.50
2024-04-18T19:06:20.119Z,97215.50
2024-04-18T19:09:07.515Z,97217.50
2024-04-18T19:11:56.779Z,97213.44
2024-04-18T19:14:43.374Z,97207.94
2024-04-18T19:17:29.448Z,97210.94
2024-04-18T19:20:15.753Z,97221.81
2024-04-18T19:23:01.973Z,97212.50
2024-04-18T19:25:47.919Z,97211.84
2024-04-18T19:28:37.007Z,97214.81
2024-04-18T19:31:23.209Z,97212.38
2024-04-18T19:34:09.384Z,97215.16
2024-04-18T19:36:55.650Z,97217.13
2024-04-18T19:39:41.880Z,97219.09
2024-04-18T19:42:29.817Z,97218.59
2024-04-18T19:45:16.015Z,97228.81
2024-04-18T19:48:02.669Z,97229.34
2024-04-18T19:50:48.721Z,97225.38
2024-04-18T19:53:43.949Z,97228.66
2024-04-18T19:56:30.297Z,97220.50
2024-04-18T19:59:16.360Z,97227.25
2024-04-18T20:02:02.626Z,97230.34
2024-04-18T20:04:48.813Z,97224.22
2024-04-18T20:07:35.185Z,97223.16
2024-04-18T20:10:21.324Z,97227.31
2024-04-18T20:13:07.712Z,97227.25
2024-04-18T20:15:54.250Z,97229.97
2024-04-18T20:18:40.314Z,97225.47
2024-04-18T20:21:27.001Z,97227.19
2024-04-18T20:24:15.562Z,97229.56
2024-04-18T20:27:21.443Z,97230.63
2024-04-18T20:30:08.394Z,97232.53
2024-04-18T20:32:54.958Z,97241.13
2024-04-18T20:35:41.174Z,97240.75
2024-04-18T20:38:26.867Z,97237.41
2024-04-18T20:41:12.973Z,97243.16
2024-04-18T20:43:59.795Z,97234.72
2024-04-18T20:46:46.036Z,97242.91
2024-04-18T20:49:31.933Z,97236.94
2024-04-18T20:52:18.025Z,97241.25
2024-04-18T20:55:07.652Z,97234.94
2024-04-18T20:57:53.878Z,97238.88
2024-04-18T21:00:45.536Z,97243.50
2024-04-18T21:03:32.624Z,97243.84
2024-04-18T21:06:19.206Z,97255.66
2024-04-18T21:09:11.044Z,97248.53
2024-04-18T21:11:57.503Z,97249.03
2024-04-18T21:14:43.746Z,97248.75
2024-04-18T21:17:30.255Z,97256.13
2024-04-18T21:20:16.391Z,97255.66
2024-04-18T21:23:02.719Z,97256.53
2024-04-18T21:25:49.130Z,97255.59
2024-04-18T21:28:35.311Z,97251.06
2024-04-18T21:31:21.378Z,97252.06
2024-04-18T21:34:08.908Z,97257.63
2024-04-18T21:36:55.065Z,97256.97
2024-04-18T21:39:41.328Z,97252.91
2024-04-18T21:42:27.558Z,97254.06
2024-04-18T21:45:13.629Z,97250.00
2024-04-18T21:48:00.296Z,97252.81
2024-04-18T21:50:46.921Z,97253.97
2024-04-18T21:53:33.308Z,97247.63
2024-04-18T21:56:19.457Z,97249.28
2024-04-18T21:59:05.763Z,97241.16
2024-04-18T22:01:57.956Z,97246.88
2024-04-18T22:04:46.617Z,97251.31
2024-04-18T22:07:33.176Z,97244.78
2024-04-18T22:10:19.810Z,97239.91
2024-04-18T22:13:06.199Z,97239.91
2024-04-18T22:15:52.455Z,97236.66
2024-04-18T22:18:39.233Z,97233.25
2024-04-18T22:21:25.704Z,97233.56
2024-04-18T22:24:11.837Z,97233.75
2024-04-18T22:26:58.147Z,97221.84
2024-04-18T22:29:44.624Z,97227.25
2024-04-18T22:32:30.700Z,97224.78
2024-04-18T22:35:17.028Z,97221.69
2024-04-18T22:38:03.224Z,97218.47
2024-04-18T22:40:52.677Z,97224.00
2024-04-18T22:43:38.660Z,97225.97
2024-04-18T22:46:24.959Z,97222.75
2024-04-18T22:49:11.116Z,97216.53
2024-04-18T22:51:57.338Z,97219.94
2024-04-18T22:54:43.602Z,97222.38
2024-04-18T22:57:35.625Z,97218.78
2024-04-18T23:00:22.943Z,97219.63
2024-04-18T23:03:09.681Z,97220.09
2024-04-18T23:05:55.945Z,97221.56
2024-04-18T23:09:00.482Z,97220.03
2024-04-18T23:11:47.118Z,97221.97
2024-04-18T23:14:33.645Z,97221.47
2024-04-18T23:17:19.851Z,97218.34
2024-04-18T23:20:08.410Z,97214.56
2024-04-18T23:22:55.027Z,97209.00
2024-04-18T23:25:50.306Z,97208.19
2024-04-18T23:28:36.589Z,97210.47
2024-04-18T23:31:22.408Z,97202.28
2024-04-18T23:34:08.700Z,97202.56
2024-04-18T23:36:55.089Z,97199.63
2024-04-18T23:39:42.212Z,97199.91
2024-04-18T23:42:28.657Z,97191.72
2024-04-18T23:45:15.010Z,97193.00
2024-04-18T23:48:01.295Z,97189.69
2024-04-18T23:50:47.406Z,97180.34
2024-04-18T23:53:33.755Z,97179.00
2024-04-18T23:56:19.923Z,97180.09
2024-04-18T23:59:06.148Z,97183.97
